N311MU SCTB-SCCH
Flight info
| Callsign | N311MU |
|---|---|
| Flight time | 0h 54m |
| Altitude | 23000 |
| Route | PARKE8 AMB V551 ASETI ASETI2B |
| Aircraft | SF50/L-SDGRWY/L |
Departure
| Time | 2026-04-21 04:14 |
|---|---|
| Airport | Eulogio Sánchez Airport (SCTB) |
Arrival
| Time | 2026-04-21 05:08 |
|---|---|
| Airport | Gral. Bernardo O´Higgins Airport (SCCH) |
| Time | Latitude | Longitude | Altitude | Speed | Heading |
|---|---|---|---|---|---|
| 2026-04-21 03:46 | -33.45265 | -70.54836 | 2163 ft | 0 kts | 105° |
| 2026-04-21 04:06 | -33.45281 | -70.54826 | 2155 ft | 5 kts | 187° |
| 2026-04-21 04:06 | -33.45299 | -70.54829 | 2153 ft | 0 kts | 186° |
| 2026-04-21 04:06 | -33.45300 | -70.54829 | 2154 ft | 1 kts | 186° |
| 2026-04-21 04:07 | -33.45338 | -70.54839 | 2155 ft | 10 kts | 191° |
| 2026-04-21 04:07 | -33.45416 | -70.54864 | 2155 ft | 15 kts | 194° |
| 2026-04-21 04:07 | -33.45514 | -70.54891 | 2155 ft | 11 kts | 179° |
| 2026-04-21 04:07 | -33.45541 | -70.54828 | 2155 ft | 9 kts | 105° |
| 2026-04-21 04:08 | -33.45557 | -70.54749 | 2154 ft | 10 kts | 15° |
| 2026-04-21 04:08 | -33.45473 | -70.54728 | 2154 ft | 14 kts | 14° |
| 2026-04-21 04:08 | -33.45361 | -70.54695 | 2154 ft | 19 kts | 14° |
| 2026-04-21 04:08 | -33.45244 | -70.54661 | 2154 ft | 15 kts | 13° |
| 2026-04-21 04:09 | -33.45183 | -70.54644 | 2154 ft | 12 kts | 14° |
| 2026-04-21 04:09 | -33.45119 | -70.54614 | 2154 ft | 4 kts | 82° |
| 2026-04-21 04:09 | -33.45120 | -70.54600 | 2154 ft | 0 kts | 97° |
| 2026-04-21 04:11 | -33.45120 | -70.54595 | 2154 ft | 2 kts | 99° |
| 2026-04-21 04:12 | -33.45126 | -70.54548 | 2154 ft | 6 kts | 110° |
| 2026-04-21 04:12 | -33.45148 | -70.54535 | 2154 ft | 0 kts | 191° |
| 2026-04-21 04:13 | -33.45208 | -70.54551 | 2154 ft | 34 kts | 193° |
| 2026-04-21 04:13 | -33.45653 | -70.54678 | 2153 ft | 94 kts | 194° |
| 2026-04-21 04:13 | -33.46392 | -70.54892 | 2399 ft | 119 kts | 194° |
| 2026-04-21 04:14 | -33.47193 | -70.55157 | 2894 ft | 123 kts | 194° |
| 2026-04-21 04:14 | -33.47928 | -70.55680 | 3367 ft | 131 kts | 228° |
| 2026-04-21 04:14 | -33.48329 | -70.56659 | 3936 ft | 126 kts | 255° |
| 2026-04-21 04:14 | -33.48424 | -70.57783 | 4216 ft | 150 kts | 277° |
| 2026-04-21 04:15 | -33.48057 | -70.59054 | 4405 ft | 162 kts | 297° |
| 2026-04-21 04:15 | -33.47549 | -70.60298 | 4339 ft | 178 kts | 295° |
| 2026-04-21 04:15 | -33.47091 | -70.61760 | 4356 ft | 189 kts | 290° |
| 2026-04-21 04:15 | -33.46647 | -70.63227 | 4135 ft | 192 kts | 291° |
| 2026-04-21 04:16 | -33.46190 | -70.64697 | 4071 ft | 186 kts | 291° |
| 2026-04-21 04:16 | -33.45759 | -70.66175 | 3896 ft | 192 kts | 288° |
| 2026-04-21 04:16 | -33.45314 | -70.67716 | 3990 ft | 184 kts | 291° |
| 2026-04-21 04:16 | -33.44884 | -70.69144 | 3911 ft | 178 kts | 292° |
| 2026-04-21 04:17 | -33.44132 | -70.70119 | 3956 ft | 153 kts | 332° |
| 2026-04-21 04:17 | -33.43488 | -70.71052 | 4009 ft | 150 kts | 280° |
| 2026-04-21 04:17 | -33.43577 | -70.72316 | 4037 ft | 165 kts | 268° |
| 2026-04-21 04:17 | -33.43349 | -70.73708 | 4069 ft | 176 kts | 291° |
| 2026-04-21 04:18 | -33.42943 | -70.75098 | 4234 ft | 177 kts | 284° |
| 2026-04-21 04:18 | -33.42983 | -70.76568 | 4399 ft | 179 kts | 258° |
| 2026-04-21 04:18 | -33.43520 | -70.77911 | 4562 ft | 182 kts | 233° |
| 2026-04-21 04:18 | -33.44490 | -70.78881 | 4715 ft | 184 kts | 208° |
| 2026-04-21 04:19 | -33.45712 | -70.79311 | 4876 ft | 184 kts | 190° |
| 2026-04-21 04:19 | -33.46972 | -70.79595 | 5020 ft | 184 kts | 191° |
| 2026-04-21 04:19 | -33.48225 | -70.79901 | 5192 ft | 183 kts | 191° |
| 2026-04-21 04:19 | -33.49463 | -70.80190 | 5316 ft | 184 kts | 191° |
| 2026-04-21 04:20 | -33.50729 | -70.80487 | 5440 ft | 186 kts | 191° |
| 2026-04-21 04:20 | -33.52003 | -70.80784 | 5562 ft | 187 kts | 192° |
| 2026-04-21 04:20 | -33.53288 | -70.81088 | 5685 ft | 189 kts | 192° |
| 2026-04-21 04:20 | -33.54583 | -70.81392 | 5766 ft | 190 kts | 192° |
| 2026-04-21 04:21 | -33.55838 | -70.81681 | 5757 ft | 179 kts | 192° |
| 2026-04-21 04:21 | -33.57125 | -70.81960 | 5920 ft | 195 kts | 191° |
| 2026-04-21 04:21 | -33.58447 | -70.82230 | 6496 ft | 195 kts | 192° |
| 2026-04-21 04:21 | -33.59810 | -70.82498 | 6919 ft | 200 kts | 192° |
| 2026-04-21 04:22 | -33.61176 | -70.82751 | 7392 ft | 202 kts | 191° |
| 2026-04-21 04:22 | -33.62574 | -70.82992 | 7865 ft | 204 kts | 191° |
| 2026-04-21 04:22 | -33.63991 | -70.83219 | 8344 ft | 206 kts | 190° |
| 2026-04-21 04:22 | -33.65424 | -70.83430 | 8813 ft | 209 kts | 189° |
| 2026-04-21 04:23 | -33.66878 | -70.83628 | 9277 ft | 211 kts | 189° |
| 2026-04-21 04:23 | -33.68343 | -70.83839 | 9756 ft | 212 kts | 196° |
| 2026-04-21 04:23 | -33.69651 | -70.84600 | 10191 ft | 209 kts | 216° |
| 2026-04-21 04:23 | -33.70988 | -70.85313 | 10644 ft | 214 kts | 199° |
| 2026-04-21 04:24 | -33.72437 | -70.85631 | 11108 ft | 215 kts | 192° |
| 2026-04-21 04:24 | -33.73908 | -70.85917 | 11626 ft | 212 kts | 194° |
| 2026-04-21 04:24 | -33.75355 | -70.86265 | 12115 ft | 212 kts | 195° |
| 2026-04-21 04:24 | -33.76803 | -70.86613 | 12593 ft | 212 kts | 195° |
| 2026-04-21 04:25 | -33.78250 | -70.86953 | 13060 ft | 212 kts | 195° |
| 2026-04-21 04:25 | -33.79703 | -70.87296 | 13534 ft | 212 kts | 195° |
| 2026-04-21 04:25 | -33.81154 | -70.87635 | 13998 ft | 212 kts | 196° |
| 2026-04-21 04:25 | -33.82605 | -70.87980 | 14389 ft | 213 kts | 196° |
| 2026-04-21 04:26 | -33.84018 | -70.88338 | 14898 ft | 204 kts | 197° |
| 2026-04-21 04:26 | -33.85408 | -70.88658 | 15290 ft | 206 kts | 196° |
| 2026-04-21 04:26 | -33.86817 | -70.88973 | 15688 ft | 206 kts | 197° |
| 2026-04-21 04:26 | -33.88220 | -70.89306 | 16092 ft | 206 kts | 197° |
| 2026-04-21 04:27 | -33.89624 | -70.89639 | 16482 ft | 206 kts | 198° |
| 2026-04-21 04:27 | -33.91034 | -70.89973 | 16844 ft | 206 kts | 198° |
| 2026-04-21 04:27 | -33.92427 | -70.90301 | 17187 ft | 207 kts | 197° |
| 2026-04-21 04:27 | -33.93843 | -70.90630 | 17510 ft | 208 kts | 198° |
| 2026-04-21 04:28 | -33.95268 | -70.90947 | 17930 ft | 207 kts | 198° |
| 2026-04-21 04:28 | -33.96675 | -70.91306 | 18340 ft | 206 kts | 200° |
| 2026-04-21 04:28 | -33.98081 | -70.91676 | 18667 ft | 209 kts | 198° |
| 2026-04-21 04:28 | -33.99534 | -70.91890 | 19044 ft | 213 kts | 189° |
| 2026-04-21 04:29 | -34.01021 | -70.91897 | 19338 ft | 214 kts | 188° |
| 2026-04-21 04:29 | -34.02512 | -70.91917 | 19541 ft | 216 kts | 188° |
| 2026-04-21 04:29 | -34.04012 | -70.91902 | 19867 ft | 215 kts | 187° |
| 2026-04-21 04:29 | -34.05514 | -70.91873 | 20182 ft | 216 kts | 187° |
| 2026-04-21 04:30 | -34.07002 | -70.91845 | 20483 ft | 215 kts | 188° |
| 2026-04-21 04:30 | -34.08438 | -70.92182 | 20760 ft | 208 kts | 205° |
| 2026-04-21 04:30 | -34.09800 | -70.92767 | 21016 ft | 208 kts | 206° |
| 2026-04-21 04:30 | -34.11052 | -70.93566 | 21254 ft | 201 kts | 225° |
| 2026-04-21 04:31 | -34.12028 | -70.94764 | 21582 ft | 200 kts | 228° |
| 2026-04-21 04:31 | -34.13083 | -70.95864 | 21919 ft | 201 kts | 221° |
| 2026-04-21 04:31 | -34.14270 | -70.96777 | 22246 ft | 203 kts | 213° |
| 2026-04-21 04:31 | -34.15595 | -70.97412 | 22563 ft | 207 kts | 202° |
| 2026-04-21 04:32 | -34.16982 | -70.97815 | 22871 ft | 208 kts | 198° |
| 2026-04-21 04:32 | -34.18390 | -70.98201 | 23180 ft | 207 kts | 199° |
| 2026-04-21 04:32 | -34.19823 | -70.98626 | 23221 ft | 218 kts | 200° |
| 2026-04-21 04:32 | -34.21328 | -70.99081 | 23227 ft | 227 kts | 199° |
| 2026-04-21 04:33 | -34.22890 | -70.99541 | 23230 ft | 235 kts | 199° |
| 2026-04-21 04:33 | -34.24501 | -71.00016 | 23226 ft | 241 kts | 199° |
| 2026-04-21 04:33 | -34.26152 | -71.00504 | 23232 ft | 246 kts | 199° |
| 2026-04-21 04:33 | -34.27809 | -71.00994 | 23233 ft | 250 kts | 198° |
| 2026-04-21 04:34 | -34.29516 | -71.01499 | 23234 ft | 254 kts | 198° |
| 2026-04-21 04:34 | -34.31252 | -71.02014 | 23235 ft | 258 kts | 198° |
| 2026-04-21 04:34 | -34.33011 | -71.02535 | 23240 ft | 262 kts | 198° |
| 2026-04-21 04:34 | -34.34806 | -71.03065 | 23236 ft | 267 kts | 198° |
| 2026-04-21 04:35 | -34.36597 | -71.03599 | 23243 ft | 271 kts | 198° |
| 2026-04-21 04:35 | -34.38447 | -71.04148 | 23240 ft | 273 kts | 198° |
| 2026-04-21 04:35 | -34.40304 | -71.04698 | 23241 ft | 276 kts | 198° |
| 2026-04-21 04:35 | -34.42237 | -71.04920 | 23235 ft | 283 kts | 183° |
| 2026-04-21 04:36 | -34.44209 | -71.04800 | 23233 ft | 283 kts | 184° |
| 2026-04-21 04:36 | -34.46188 | -71.04599 | 23235 ft | 286 kts | 179° |
| 2026-04-21 04:36 | -34.48173 | -71.04398 | 23236 ft | 286 kts | 182° |
| 2026-04-21 04:36 | -34.50130 | -71.04430 | 23250 ft | 284 kts | 189° |
| 2026-04-21 04:37 | -34.52063 | -71.04840 | 23236 ft | 280 kts | 199° |
| 2026-04-21 04:37 | -34.53908 | -71.05607 | 23234 ft | 279 kts | 204° |
| 2026-04-21 04:37 | -34.55735 | -71.06394 | 23235 ft | 279 kts | 201° |
| 2026-04-21 04:37 | -34.57600 | -71.07063 | 23236 ft | 279 kts | 200° |
| 2026-04-21 04:38 | -34.59466 | -71.07714 | 23238 ft | 279 kts | 200° |
| 2026-04-21 04:38 | -34.61329 | -71.08408 | 23238 ft | 280 kts | 201° |
| 2026-04-21 04:38 | -34.63171 | -71.09101 | 23238 ft | 280 kts | 201° |
| 2026-04-21 04:38 | -34.65041 | -71.09791 | 23236 ft | 281 kts | 201° |
| 2026-04-21 04:39 | -34.66918 | -71.10483 | 23239 ft | 281 kts | 201° |
| 2026-04-21 04:39 | -34.68789 | -71.11177 | 23239 ft | 281 kts | 201° |
| 2026-04-21 04:39 | -34.70659 | -71.11870 | 23238 ft | 281 kts | 201° |
| 2026-04-21 04:39 | -34.72535 | -71.12564 | 23233 ft | 282 kts | 201° |
| 2026-04-21 04:40 | -34.74409 | -71.13261 | 23231 ft | 281 kts | 201° |
| 2026-04-21 04:40 | -34.76257 | -71.13944 | 23242 ft | 281 kts | 200° |
| 2026-04-21 04:40 | -34.78134 | -71.14642 | 23229 ft | 281 kts | 200° |
| 2026-04-21 04:40 | -34.80005 | -71.15337 | 23226 ft | 281 kts | 200° |
| 2026-04-21 04:41 | -34.81876 | -71.16033 | 23226 ft | 281 kts | 200° |
| 2026-04-21 04:41 | -34.83748 | -71.16730 | 23223 ft | 280 kts | 200° |
| 2026-04-21 04:41 | -34.85618 | -71.17425 | 23220 ft | 280 kts | 200° |
| 2026-04-21 04:41 | -34.87479 | -71.18118 | 23218 ft | 279 kts | 200° |
| 2026-04-21 04:42 | -34.89341 | -71.18811 | 23217 ft | 279 kts | 200° |
| 2026-04-21 04:42 | -34.91197 | -71.19501 | 23217 ft | 279 kts | 200° |
| 2026-04-21 04:42 | -34.93032 | -71.20185 | 23217 ft | 279 kts | 200° |
| 2026-04-21 04:42 | -34.94891 | -71.20877 | 23216 ft | 279 kts | 200° |
| 2026-04-21 04:43 | -34.96746 | -71.21576 | 23215 ft | 277 kts | 201° |
| 2026-04-21 04:43 | -34.98530 | -71.22454 | 23214 ft | 276 kts | 206° |
| 2026-04-21 04:43 | -35.00305 | -71.23341 | 23214 ft | 276 kts | 205° |
| 2026-04-21 04:43 | -35.02090 | -71.24218 | 23214 ft | 276 kts | 205° |
| 2026-04-21 04:44 | -35.03864 | -71.25101 | 23247 ft | 276 kts | 205° |
| 2026-04-21 04:44 | -35.05646 | -71.25989 | 23247 ft | 276 kts | 205° |
| 2026-04-21 04:44 | -35.07424 | -71.26875 | 23249 ft | 276 kts | 205° |
| 2026-04-21 04:44 | -35.09204 | -71.27761 | 23250 ft | 276 kts | 205° |
| 2026-04-21 04:45 | -35.10947 | -71.28630 | 23252 ft | 276 kts | 205° |
| 2026-04-21 04:45 | -35.12750 | -71.29526 | 23252 ft | 276 kts | 205° |
| 2026-04-21 04:45 | -35.14528 | -71.30414 | 23252 ft | 276 kts | 205° |
| 2026-04-21 04:45 | -35.16304 | -71.31300 | 23252 ft | 276 kts | 205° |
| 2026-04-21 04:46 | -35.18082 | -71.32186 | 23255 ft | 276 kts | 205° |
| 2026-04-21 04:46 | -35.19860 | -71.33074 | 23255 ft | 276 kts | 205° |
| 2026-04-21 04:46 | -35.21636 | -71.33960 | 23255 ft | 276 kts | 205° |
| 2026-04-21 04:46 | -35.23394 | -71.34840 | 23255 ft | 276 kts | 205° |
| 2026-04-21 04:47 | -35.25170 | -71.35728 | 23256 ft | 276 kts | 205° |
| 2026-04-21 04:47 | -35.26948 | -71.36619 | 23256 ft | 276 kts | 205° |
| 2026-04-21 04:47 | -35.28727 | -71.37509 | 23266 ft | 276 kts | 205° |
| 2026-04-21 04:47 | -35.30506 | -71.38401 | 23259 ft | 276 kts | 205° |
| 2026-04-21 04:48 | -35.32283 | -71.39290 | 23259 ft | 276 kts | 205° |
| 2026-04-21 04:48 | -35.34057 | -71.40180 | 23258 ft | 275 kts | 205° |
| 2026-04-21 04:48 | -35.35828 | -71.41067 | 23258 ft | 275 kts | 205° |
| 2026-04-21 04:48 | -35.37597 | -71.41954 | 23258 ft | 275 kts | 204° |
| 2026-04-21 04:49 | -35.39362 | -71.42840 | 23260 ft | 274 kts | 205° |
| 2026-04-21 04:49 | -35.41130 | -71.43726 | 23260 ft | 274 kts | 205° |
| 2026-04-21 04:49 | -35.42876 | -71.44604 | 23259 ft | 274 kts | 205° |
| 2026-04-21 04:49 | -35.44638 | -71.45491 | 23259 ft | 273 kts | 205° |
| 2026-04-21 04:50 | -35.46399 | -71.46379 | 23259 ft | 273 kts | 205° |
| 2026-04-21 04:50 | -35.48160 | -71.47265 | 23259 ft | 273 kts | 205° |
| 2026-04-21 04:50 | -35.49920 | -71.48153 | 23262 ft | 273 kts | 205° |
| 2026-04-21 04:50 | -35.51677 | -71.49039 | 23262 ft | 273 kts | 205° |
| 2026-04-21 04:51 | -35.53434 | -71.49925 | 23262 ft | 273 kts | 205° |
| 2026-04-21 04:51 | -35.55192 | -71.50812 | 23263 ft | 273 kts | 204° |
| 2026-04-21 04:51 | -35.56951 | -71.51698 | 23265 ft | 273 kts | 204° |
| 2026-04-21 04:51 | -35.58682 | -71.52573 | 23264 ft | 272 kts | 204° |
| 2026-04-21 04:52 | -35.60436 | -71.53458 | 23263 ft | 272 kts | 204° |
| 2026-04-21 04:52 | -35.62185 | -71.54342 | 23264 ft | 272 kts | 204° |
| 2026-04-21 04:52 | -35.63933 | -71.55227 | 23264 ft | 271 kts | 204° |
| 2026-04-21 04:52 | -35.65679 | -71.56110 | 23248 ft | 271 kts | 204° |
| 2026-04-21 04:53 | -35.67425 | -71.56994 | 23253 ft | 271 kts | 204° |
| 2026-04-21 04:53 | -35.69176 | -71.57882 | 23253 ft | 272 kts | 204° |
| 2026-04-21 04:53 | -35.70929 | -71.58771 | 23256 ft | 272 kts | 204° |
| 2026-04-21 04:53 | -35.72678 | -71.59658 | 23256 ft | 273 kts | 204° |
| 2026-04-21 04:54 | -35.74441 | -71.60552 | 23257 ft | 273 kts | 204° |
| 2026-04-21 04:54 | -35.76200 | -71.61444 | 23257 ft | 273 kts | 204° |
| 2026-04-21 04:54 | -35.77958 | -71.62336 | 23257 ft | 274 kts | 204° |
| 2026-04-21 04:54 | -35.79706 | -71.63222 | 23257 ft | 274 kts | 204° |
| 2026-04-21 04:55 | -35.81467 | -71.64119 | 23269 ft | 274 kts | 203° |
| 2026-04-21 04:55 | -35.83208 | -71.65002 | 23269 ft | 273 kts | 203° |
| 2026-04-21 04:55 | -35.84969 | -71.65898 | 23269 ft | 273 kts | 203° |
| 2026-04-21 04:55 | -35.86725 | -71.66792 | 23269 ft | 273 kts | 203° |
| 2026-04-21 04:56 | -35.88477 | -71.67684 | 23269 ft | 273 kts | 203° |
| 2026-04-21 04:56 | -35.90231 | -71.68579 | 23269 ft | 273 kts | 203° |
| 2026-04-21 04:56 | -35.91985 | -71.69472 | 23272 ft | 272 kts | 203° |
| 2026-04-21 04:56 | -35.93738 | -71.70367 | 23274 ft | 272 kts | 203° |
| 2026-04-21 04:57 | -35.95491 | -71.71261 | 23274 ft | 272 kts | 203° |
| 2026-04-21 04:57 | -35.97244 | -71.72155 | 23274 ft | 272 kts | 203° |
| 2026-04-21 04:57 | -35.98993 | -71.73048 | 23274 ft | 272 kts | 203° |
| 2026-04-21 04:57 | -36.00150 | -71.73640 | 23274 ft | 272 kts | 203° |
| 2026-04-21 04:58 | -36.01899 | -71.74531 | 23280 ft | 272 kts | 203° |
| 2026-04-21 04:58 | -36.04243 | -71.75731 | 23279 ft | 272 kts | 203° |
| 2026-04-21 04:58 | -36.05972 | -71.76614 | 23280 ft | 272 kts | 203° |
| 2026-04-21 04:58 | -36.07155 | -71.77221 | 23279 ft | 273 kts | 202° |
| 2026-04-21 04:59 | -36.08910 | -71.78119 | 23280 ft | 272 kts | 202° |
| 2026-04-21 04:59 | -36.10659 | -71.79016 | 23280 ft | 272 kts | 202° |
| 2026-04-21 04:59 | -36.12387 | -71.79901 | 23282 ft | 272 kts | 202° |
| 2026-04-21 04:59 | -36.14136 | -71.80798 | 23283 ft | 272 kts | 202° |
| 2026-04-21 05:00 | -36.15881 | -71.81693 | 23282 ft | 272 kts | 202° |
| 2026-04-21 05:00 | -36.17628 | -71.82590 | 23281 ft | 272 kts | 202° |
| 2026-04-21 05:00 | -36.21126 | -71.84386 | 23282 ft | 271 kts | 202° |
| 2026-04-21 05:01 | -36.22872 | -71.85283 | 23285 ft | 271 kts | 202° |
| 2026-04-21 05:01 | -36.24611 | -71.86177 | 23285 ft | 271 kts | 202° |
| 2026-04-21 05:01 | -36.26351 | -71.87073 | 23285 ft | 271 kts | 202° |
| 2026-04-21 05:01 | -36.28047 | -71.87940 | 22347 ft | 264 kts | 201° |
| 2026-04-21 05:02 | -36.29903 | -71.88376 | 20675 ft | 281 kts | 184° |
| 2026-04-21 05:02 | -36.31874 | -71.88022 | 19203 ft | 289 kts | 170° |
| 2026-04-21 05:02 | -36.33829 | -71.87360 | 17528 ft | 293 kts | 168° |
| 2026-04-21 05:02 | -36.35819 | -71.86823 | 15785 ft | 296 kts | 173° |
| 2026-04-21 05:03 | -36.37840 | -71.86620 | 14409 ft | 287 kts | 180° |
| 2026-04-21 05:03 | -36.39824 | -71.86558 | 12874 ft | 284 kts | 179° |
| 2026-04-21 05:03 | -36.41776 | -71.86404 | 11407 ft | 278 kts | 175° |
| 2026-04-21 05:03 | -36.43682 | -71.86191 | 9903 ft | 272 kts | 174° |
| 2026-04-21 05:04 | -36.45555 | -71.86073 | 8252 ft | 268 kts | 183° |
| 2026-04-21 05:04 | -36.47277 | -71.86879 | 6671 ft | 270 kts | 216° |
| 2026-04-21 05:04 | -36.48444 | -71.88683 | 5049 ft | 266 kts | 242° |
| 2026-04-21 05:04 | -36.49199 | -71.90712 | 3586 ft | 259 kts | 245° |
| 2026-04-21 05:05 | -36.49995 | -71.92625 | 3201 ft | 227 kts | 239° |
| 2026-04-21 05:05 | -36.50876 | -71.94098 | 3158 ft | 207 kts | 227° |
| 2026-04-21 05:05 | -36.51877 | -71.95307 | 2778 ft | 187 kts | 221° |
| 2026-04-21 05:05 | -36.52784 | -71.96369 | 2244 ft | 175 kts | 223° |
| 2026-04-21 05:06 | -36.53575 | -71.97350 | 1810 ft | 148 kts | 223° |
| 2026-04-21 05:06 | -36.54244 | -71.98178 | 1527 ft | 118 kts | 223° |
| 2026-04-21 05:06 | -36.54761 | -71.98815 | 1348 ft | 95 kts | 222° |
| 2026-04-21 05:06 | -36.55214 | -71.99366 | 1218 ft | 90 kts | 222° |
| 2026-04-21 05:07 | -36.55661 | -71.99920 | 1107 ft | 91 kts | 222° |
| 2026-04-21 05:07 | -36.56118 | -72.00481 | 995 ft | 93 kts | 223° |
| 2026-04-21 05:07 | -36.56579 | -72.01054 | 852 ft | 94 kts | 222° |
| 2026-04-21 05:07 | -36.57062 | -72.01632 | 729 ft | 95 kts | 223° |
| 2026-04-21 05:08 | -36.57520 | -72.02233 | 569 ft | 96 kts | 224° |
| 2026-04-21 05:08 | -36.57959 | -72.02784 | 518 ft | 78 kts | 222° |
| 2026-04-21 05:08 | -36.58293 | -72.03190 | 507 ft | 58 kts | 226° |
| 2026-04-21 05:08 | -36.58519 | -72.03473 | 510 ft | 27 kts | 226° |
| 2026-04-21 05:09 | -36.58607 | -72.03582 | 511 ft | 7 kts | 227° |
| 2026-04-21 05:09 | -36.58654 | -72.03641 | 512 ft | 12 kts | 226° |
| 2026-04-21 05:09 | -36.58706 | -72.03705 | 508 ft | 10 kts | 223° |
| 2026-04-21 05:09 | -36.58768 | -72.03781 | 504 ft | 14 kts | 227° |
| 2026-04-21 05:10 | -36.58751 | -72.03862 | 506 ft | 10 kts | 328° |
| 2026-04-21 05:10 | -36.58700 | -72.03902 | 506 ft | 7 kts | 332° |
| 2026-04-21 05:10 | -36.58656 | -72.03914 | 507 ft | 4 kts | 306° |
| 2026-04-21 05:10 | -36.58656 | -72.03915 | 507 ft | 0 kts | 306° |
| 2026-04-21 05:11 | -36.58658 | -72.03919 | 507 ft | 4 kts | 174° |
| 2026-04-21 05:11 | -36.58683 | -72.03906 | 506 ft | 0 kts | 152° |
| 2026-04-21 05:12 | -36.58768 | -72.03847 | 506 ft | 13 kts | 128° |
| 2026-04-21 05:12 | -36.58741 | -72.03752 | 502 ft | 29 kts | 45° |
| 2026-04-21 05:12 | -36.58281 | -72.03182 | 576 ft | 101 kts | 46° |
| 2026-04-21 05:13 | -36.57717 | -72.02547 | 927 ft | 122 kts | 43° |
| 2026-04-21 05:13 | -36.57057 | -72.01825 | 1558 ft | 138 kts | 42° |
| 2026-04-21 05:13 | -36.56575 | -72.01336 | 2195 ft | 125 kts | 39° |
| 2026-04-21 05:13 | -36.55970 | -72.00770 | 3259 ft | 84 kts | 37° |
| 2026-04-21 05:14 | -36.55526 | -72.00342 | 3609 ft | 100 kts | 37° |
| 2026-04-21 05:14 | -36.55072 | -71.99975 | 3837 ft | 94 kts | 33° |
| 2026-04-21 05:14 | -36.54327 | -71.99467 | 4076 ft | 106 kts | 24° |
| 2026-04-21 05:14 | -36.53778 | -71.99366 | 3742 ft | 41 kts | 320° |
| 2026-04-21 05:15 | -36.53652 | -71.98454 | 3657 ft | 68 kts | 73° |
| 2026-04-21 05:15 | -36.53523 | -71.97821 | 3083 ft | 123 kts | 81° |
| 2026-04-21 05:15 | -36.53475 | -71.97637 | 2330 ft | 39 kts | 238° |
| 2026-04-21 05:15 | -36.53423 | -71.97668 | 1682 ft | 19 kts | 281° |
| 2026-04-21 05:16 | -36.53397 | -71.97674 | 1035 ft | 8 kts | 275° |
| 2026-04-21 05:16 | -36.53380 | -71.97686 | 550 ft | 0 kts | 14° |
| 2026-04-21 05:16 | -36.53381 | -71.97686 | 550 ft | 0 kts | 13° |